Terminal Aerodrome Forecast
Issued by NWS

Home | Current Version | Previous Version | Text Only | Print | Product List | Glossary On
Versions: 1 2 3 4 5 6 7 8 9 10 11 12 13 14 15 16 17 18
000
FTUS45 KPSR 230520
TAFBLH
TAF
KBLH 230520Z 2306/2406 22011KT P6SM SCT090 SCT200
     FM231200 VRB03KT P6SM FEW100 SCT200
     FM231800 19010KT P6SM FEW090 SCT250
      TEMPO 2320/2324 19012G20KT
     FM240100 22010KT P6SM FEW250=

USA.gov is the U.S. government's official web portal to all federal, state and local government web resources and services.